AirNav   Everest Fuels
 
 1167 users online  

21NH Propwash Airport
Kensington, New Hampshire, USA

GOING TO KENSINGTON?


FAA INFORMATION EFFECTIVE 10 SEPTEMBER 2020

Location

FAA Identifier: 21NH
Lat/Long: 42-55-01.0000N 070-56-07.0000W
42-55.016667N 070-56.116667W
42.9169444,-70.9352778
(estimated)
Elevation: 190 ft. / 58 m (estimated)
From city: 1 mile SE of KENSINGTON, NH
Time zone: UTC -4 (UTC -5 during Standard Time)
Zip code: 03833

Airport Operations

Airport use: Private use. Permission required prior to landing
Activation date: 03/2004
Control tower: no
ARTCC: BOSTON CENTER
FSS: BANGOR FLIGHT SERVICE STATION
Attendance: UNATNDD
Segmented circle: no

Airport Communications

WX ASOS at LWM (15 nm SW): PHONE 978-687-8017
WX ASOS at BVY (20 nm S): PHONE 978-921-5042

Nearby radio navigation aids

VOR radial/distance  VOR name  Freq  Var
PSMr220/11.0PEASE VOR/DME116.5016W
LWMr049/12.7LAWRENCE VOR/DME112.5015W
MHTr096/19.3MANCHESTER VOR/DME114.4015W
CONr138/33.4CONCORD VOR/DME112.9015W
ENEr222/33.6KENNEBUNK VOR/DME117.1017W
BOSr020/33.7BOSTON VOR/DME112.7016W

 
NDB name  Hdg/Dist  Freq  Var  ID
ROLLINS210/18.826016WESG . ... --.

Airport Services

Runway Information

Runway 13/31

Dimensions: 1450 x 80 ft. / 442 x 24 m
Surface: turf
RUNWAY 13  RUNWAY 31
Traffic pattern: leftleft
Obstructions: 40 ft. trees, 1000 ft. from runway50 ft. trees, 1000 ft. from runway

Airport Ownership and Management from official FAA records

Ownership: Privately-owned
Owner: GEERT FRANK
21 COTTAGE ROAD
KENSINGTON, NH 03833-6727
Phone 603-772-4635
Manager: GEERT FRANK
21 COTTAGE ROAD
KENSINGTON, NH 03833-6727
Phone 603-772-4635

Additional Remarks

FOR CD CTC BOSTON APCH AT 603-594-5551.

Instrument Procedures

There are no published instrument procedures at 21NH.

Some nearby airports with instrument procedures:

KPSM - Portsmouth International Airport at Pease (11 nm NE)
KLWM - Lawrence Municipal Airport (15 nm SW)
3B4 - Littlebrook Air Park (15 nm NE)
KBVY - Beverly Regional Airport (20 nm S)
KMHT - Manchester Airport (22 nm W)
 
Loc | Ops | Rwys | IFR | FBO | Links
Com | Nav | Svcs | Stats | Notes
Area around 21NH (Propwash Airport)
 
Road maps at: MapQuest Bing Google
 
Aerial photo
No photo
 
Sectional chart

 
Airport distance calculator
Flying to Propwash Airport? Find the distance to fly.

From to 21NH

Sunrise and sunset
Times for 19-Sep-2020
 Local
(UTC-4)
 Zulu
(UTC)
Morning civil twilight06:0110:01
Sunrise06:3010:30
Sunset18:4522:45
Evening civil twilight19:1323:13

Current date and time
Zulu (UTC)  19-Sep-2020 18:18:00
Local (UTC-4)  19-Sep-2020 14:18:00
 
METAR
KPSM 
10nm NE 
191756Z 34005KT 10SM FEW035 16/M08 A3028 RMK AO2A SLP257 T01641080 10164 20082 57009
KLWM 
15nm SW 
191754Z VRB04KT 10SM CLR 16/M02 A3031 RMK AO2 SLP265 T01561017 10161 20078 58010
KBVY 
20nm S 
191753Z 06006KT 10SM CLR 16/M01 A3029 RMK AO2 SLP253 T01561011 10161 20089 58007
TAF
KPSM 
10nm NE 
191121Z 1912/2012 32009KT P6SM SKC FM191500 34010G17KT P6SM FEW250 FM192200 33006KT P6SM SKC
NOTAMs
Click for the latest NOTAMs
NOTAMs are issued by the DoD/FAA and will open in a separate window not controlled by AirNav.

 

 
 

Would you like to see your business listed on this page?

 If your business provides an interesting product or service to pilots, flight crews, aircraft, or users of the Propwash Airport, you should consider listing it here.  To start the listing process, click on the button below
 
Add a business
 

Other Pages about Propwash Airport

Update a link
 
Copyright © AirNav, LLC. All rights reserved. Privacy Policy  Contact